Atlasburg, Pennsylvania
Current Conditions -  °F | °C
As of 11:51 PM on Friday 31 Oct 2014 (Local Time) from KPIT Reporting Station
Drizzle Drizzle  
Wind Chill: 37°   Ceiling: 4400
Heat Index: 41°   Visibility: 8mi
Dew Point: 39°   Wind: 6mph
Humidity: 93%   Direction: 40°NE
Pressure: 29.88"   Gusts: NA
Location:  40.34°N, 80.38°W
Report Text: KPIT 010351Z 04005KT 8SM -DZ FEW026 BKN044 OVC100 05/04 A2988 RMK AO2 RAE37DZB37 SLP131 P0001 T00500039
Loading
Personal Weather Stations






























Interactive Weather Map
Tropical Storm Tracking
New forecast layout! Learn more

10-Day Weather Forecast

Advertisements
Track Severe Weather on mobile